createdAt,value
2023-05-25T00:02:36.130Z,100.00
2023-05-25T00:05:09.778Z,100.00
2023-05-25T00:07:39.182Z,100.00
2023-05-25T00:10:07.762Z,100.00
2023-05-25T00:12:36.800Z,100.00
2023-05-25T00:15:06.921Z,100.00
2023-05-25T00:17:37.521Z,100.00
2023-05-25T00:20:07.524Z,100.00
2023-05-25T00:22:38.393Z,100.00
2023-05-25T00:25:07.080Z,100.00
2023-05-25T00:27:34.640Z,100.00
2023-05-25T00:30:02.078Z,100.00
2023-05-25T00:32:32.073Z,100.00
2023-05-25T00:34:59.801Z,100.00
2023-05-25T00:37:27.349Z,100.00
2023-05-25T00:39:55.050Z,100.00
2023-05-25T00:42:23.754Z,100.00
2023-05-25T00:44:51.500Z,100.00
2023-05-25T00:47:19.299Z,100.00
2023-05-25T00:49:47.067Z,100.00
2023-05-25T00:52:15.653Z,100.00
2023-05-25T00:54:50.200Z,100.00
2023-05-25T00:57:22.471Z,100.00
2023-05-25T00:59:52.142Z,100.00
2023-05-25T01:02:21.081Z,100.00
2023-05-25T01:04:53.358Z,100.00
2023-05-25T01:07:27.967Z,100.00
2023-05-25T01:10:05.139Z,100.00
2023-05-25T01:12:39.182Z,100.00
2023-05-25T01:15:09.499Z,100.00
2023-05-25T01:17:38.444Z,100.00
2023-05-25T01:20:11.710Z,100.00
2023-05-25T01:22:59.778Z,100.00
2023-05-25T01:25:42.050Z,100.00
2023-05-25T01:28:18.805Z,100.00
2023-05-25T01:30:50.169Z,100.00
2023-05-25T01:33:19.287Z,100.00
2023-05-25T01:35:47.804Z,100.00
2023-05-25T01:38:15.950Z,100.00
2023-05-25T01:40:43.509Z,100.00
2023-05-25T01:43:11.245Z,100.00
2023-05-25T01:45:38.946Z,100.00
2023-05-25T01:48:38.052Z,100.00
2023-05-25T01:51:22.592Z,100.00
2023-05-25T01:53:54.607Z,100.00
2023-05-25T01:56:26.723Z,100.00
2023-05-25T01:58:56.591Z,100.00
2023-05-25T02:01:26.116Z,100.00
2023-05-25T02:03:55.153Z,100.00
2023-05-25T02:06:22.882Z,100.00
2023-05-25T02:08:50.335Z,100.00
2023-05-25T02:11:19.001Z,100.00
2023-05-25T02:13:46.768Z,100.00
2023-05-25T02:16:14.291Z,100.00
2023-05-25T02:18:46.039Z,100.00
2023-05-25T02:21:13.578Z,100.00
2023-05-25T02:23:40.836Z,100.00
2023-05-25T02:26:09.054Z,100.00
2023-05-25T02:28:36.892Z,100.00
2023-05-25T02:31:04.318Z,100.00
2023-05-25T02:33:32.420Z,100.00
2023-05-25T02:35:59.942Z,100.00
2023-05-25T02:38:27.404Z,100.00
2023-05-25T02:40:54.718Z,100.00
2023-05-25T02:43:24.425Z,100.00
2023-05-25T02:45:51.770Z,100.00
2023-05-25T02:48:21.728Z,100.00
2023-05-25T02:50:49.275Z,100.00
2023-05-25T02:53:16.740Z,100.00
2023-05-25T02:55:45.014Z,100.00
2023-05-25T02:58:18.111Z,100.00
2023-05-25T03:01:10.622Z,100.00
2023-05-25T03:03:42.854Z,100.00
2023-05-25T03:06:10.233Z,100.00
2023-05-25T03:08:37.634Z,100.00
2023-05-25T03:11:05.154Z,100.00
2023-05-25T03:13:33.174Z,100.00
2023-05-25T03:16:02.134Z,100.00
2023-05-25T03:18:29.949Z,100.00
2023-05-25T03:20:57.814Z,100.00
2023-05-25T03:23:25.495Z,100.00
2023-05-25T03:25:56.820Z,100.00
2023-05-25T03:28:25.217Z,100.00
2023-05-25T03:30:53.990Z,100.00
2023-05-25T03:33:21.678Z,100.00
2023-05-25T03:35:50.264Z,100.00
2023-05-25T03:38:17.754Z,100.00
2023-05-25T03:40:46.304Z,100.00
2023-05-25T03:43:13.807Z,100.00
2023-05-25T03:45:43.251Z,100.00
2023-05-25T03:48:11.190Z,100.00
2023-05-25T03:50:41.050Z,100.00
2023-05-25T03:53:08.886Z,100.00
2023-05-25T03:55:36.850Z,100.00
2023-05-25T03:58:05.610Z,100.00
2023-05-25T04:00:34.336Z,100.00
2023-05-25T04:03:01.964Z,100.00
2023-05-25T04:05:29.748Z,100.00
2023-05-25T04:07:57.919Z,100.00
2023-05-25T04:10:25.866Z,100.00
2023-05-25T04:12:56.987Z,100.00
2023-05-25T04:15:25.243Z,100.00
2023-05-25T04:18:13.404Z,100.00
2023-05-25T04:20:41.013Z,100.00
2023-05-25T04:23:11.582Z,100.00
2023-05-25T04:25:42.538Z,100.00
2023-05-25T04:28:12.525Z,100.00
2023-05-25T04:31:27.616Z,100.00
2023-05-25T04:34:21.753Z,100.00
2023-05-25T04:36:55.260Z,100.00
2023-05-25T04:39:23.844Z,100.00
2023-05-25T04:41:55.939Z,100.00
2023-05-25T04:44:24.408Z,100.00
2023-05-25T04:46:54.012Z,100.00
2023-05-25T04:49:29.701Z,100.00
2023-05-25T04:51:57.404Z,100.00
2023-05-25T04:54:25.866Z,100.00
2023-05-25T04:56:53.524Z,100.00
2023-05-25T04:59:21.326Z,100.00
2023-05-25T05:01:48.935Z,100.00
2023-05-25T05:04:18.106Z,100.00
2023-05-25T05:06:46.314Z,100.00
2023-05-25T05:09:22.772Z,100.00
2023-05-25T05:11:50.978Z,100.00
2023-05-25T05:14:19.361Z,100.00
2023-05-25T05:16:48.376Z,100.00
2023-05-25T05:19:16.180Z,100.00
2023-05-25T05:21:43.388Z,100.00
2023-05-25T05:24:11.042Z,100.00
2023-05-25T05:26:55.420Z,100.00
2023-05-25T05:29:29.792Z,100.00
2023-05-25T05:31:58.089Z,100.00
2023-05-25T05:34:26.054Z,100.00
2023-05-25T05:36:58.210Z,100.00
2023-05-25T05:39:28.292Z,100.00
2023-05-25T05:41:56.358Z,100.00
2023-05-25T05:44:27.829Z,100.00
2023-05-25T05:47:01.026Z,100.00
2023-05-25T05:49:31.029Z,100.00
2023-05-25T05:51:59.437Z,100.00
2023-05-25T05:54:28.151Z,100.00
2023-05-25T05:56:57.690Z,100.00
2023-05-25T05:59:25.681Z,100.00
2023-05-25T06:01:53.191Z,100.00
2023-05-25T06:04:20.598Z,100.00
2023-05-25T06:06:47.966Z,100.00
2023-05-25T06:09:18.010Z,100.00
2023-05-25T06:11:45.559Z,100.00
2023-05-25T06:14:13.343Z,100.00
2023-05-25T06:16:43.726Z,100.00
2023-05-25T06:19:11.762Z,100.00
2023-05-25T06:21:39.140Z,100.00
2023-05-25T06:24:06.906Z,100.00
2023-05-25T06:26:34.944Z,100.00
2023-05-25T06:29:02.627Z,100.00
2023-05-25T06:31:31.022Z,100.00
2023-05-25T06:33:58.359Z,100.00
2023-05-25T06:36:27.402Z,100.00
2023-05-25T06:38:55.652Z,100.00
2023-05-25T06:41:23.173Z,100.00
2023-05-25T06:43:50.599Z,100.00
2023-05-25T06:46:32.973Z,100.00
2023-05-25T06:49:01.468Z,100.00
2023-05-25T06:51:29.302Z,100.00
2023-05-25T06:53:57.137Z,100.00
2023-05-25T06:56:24.930Z,100.00
2023-05-25T07:01:19.668Z,100.00
2023-05-25T07:03:46.894Z,100.00
2023-05-25T07:06:15.287Z,100.00
2023-05-25T07:08:42.778Z,100.00
2023-05-25T07:11:12.656Z,100.00
2023-05-25T07:13:42.434Z,100.00
2023-05-25T07:16:09.783Z,100.00
2023-05-25T07:18:40.798Z,100.00
2023-05-25T07:21:11.261Z,100.00
2023-05-25T07:23:41.186Z,100.00
2023-05-25T07:26:09.221Z,100.00
2023-05-25T07:28:37.203Z,100.00
2023-05-25T07:31:04.642Z,100.00
2023-05-25T07:33:32.355Z,100.00
2023-05-25T07:35:59.882Z,100.00
2023-05-25T07:38:28.329Z,100.00
2023-05-25T07:40:55.742Z,100.00
2023-05-25T07:43:24.038Z,100.00
2023-05-25T07:45:51.568Z,100.00
2023-05-25T07:48:18.993Z,100.00
2023-05-25T07:50:46.595Z,100.00
2023-05-25T07:53:14.392Z,100.00
2023-05-25T07:55:41.782Z,100.00
2023-05-25T07:58:09.104Z,100.00
2023-05-25T08:00:36.536Z,100.00
2023-05-25T08:03:04.189Z,100.00
2023-05-25T08:05:32.189Z,100.00
2023-05-25T08:07:59.477Z,100.00
2023-05-25T08:10:32.195Z,100.00
2023-05-25T08:12:59.744Z,100.00
2023-05-25T08:15:27.299Z,100.00
2023-05-25T08:17:56.521Z,100.00
2023-05-25T08:20:27.301Z,100.00
2023-05-25T08:22:54.912Z,100.00
2023-05-25T08:25:22.464Z,100.00
2023-05-25T08:27:49.815Z,100.00
2023-05-25T08:30:17.074Z,100.00
2023-05-25T08:32:44.538Z,100.00
2023-05-25T08:35:14.391Z,100.00
2023-05-25T08:37:43.601Z,100.00
2023-05-25T08:40:16.153Z,100.00
2023-05-25T08:42:44.964Z,100.00
2023-05-25T08:46:48.087Z,100.00
2023-05-25T08:49:16.871Z,100.00
2023-05-25T08:51:55.000Z,100.00
2023-05-25T08:54:30.354Z,100.00
2023-05-25T08:57:22.852Z,100.00
2023-05-25T09:00:15.795Z,100.00
2023-05-25T09:02:53.105Z,100.00
2023-05-25T09:05:21.014Z,100.00
2023-05-25T09:07:51.608Z,100.00
2023-05-25T09:10:19.474Z,100.00
2023-05-25T09:12:48.263Z,100.00
2023-05-25T09:15:15.830Z,100.00
2023-05-25T09:17:43.795Z,100.00
2023-05-25T09:20:13.798Z,100.00
2023-05-25T09:22:42.527Z,100.00
2023-05-25T09:25:11.658Z,100.00
2023-05-25T09:27:39.267Z,100.00
2023-05-25T09:30:07.401Z,100.00
2023-05-25T09:32:36.455Z,100.00
2023-05-25T09:35:11.832Z,100.00
2023-05-25T09:37:41.395Z,100.00
2023-05-25T09:40:11.003Z,100.00
2023-05-25T09:42:39.118Z,100.00
2023-05-25T09:45:07.466Z,100.00
2023-05-25T09:47:37.477Z,100.00
2023-05-25T09:50:05.968Z,97.70
2023-05-25T09:52:33.594Z,92.08
2023-05-25T09:55:02.354Z,91.31
2023-05-25T09:57:29.968Z,93.66
2023-05-25T09:59:57.367Z,92.55
2023-05-25T10:02:24.906Z,95.05
2023-05-25T10:04:52.366Z,96.94
2023-05-25T10:07:20.677Z,95.25
2023-05-25T10:09:51.333Z,99.15
2023-05-25T10:12:21.170Z,100.00
2023-05-25T10:14:51.157Z,100.00
2023-05-25T10:17:23.696Z,100.00
2023-05-25T10:20:02.064Z,100.00
2023-05-25T10:22:50.966Z,100.00
2023-05-25T10:25:26.416Z,100.00
2023-05-25T10:28:02.285Z,100.00
2023-05-25T10:30:30.281Z,100.00
2023-05-25T10:32:58.029Z,100.00
2023-05-25T10:35:25.566Z,100.00
2023-05-25T10:37:54.599Z,100.00
2023-05-25T10:40:23.007Z,100.00
2023-05-25T10:42:54.929Z,100.00
2023-05-25T10:45:22.775Z,100.00
2023-05-25T10:47:51.260Z,100.00
2023-05-25T10:50:27.926Z,100.00
2023-05-25T10:53:01.525Z,100.00
2023-05-25T10:55:41.506Z,100.00
2023-05-25T10:58:14.069Z,100.00
2023-05-25T11:00:42.591Z,100.00
2023-05-25T11:03:10.863Z,100.00
2023-05-25T11:05:40.998Z,100.00
2023-05-25T11:08:11.540Z,100.00
2023-05-25T11:10:48.293Z,100.00
2023-05-25T11:13:40.613Z,100.00
2023-05-25T11:16:20.816Z,100.00
2023-05-25T11:18:54.207Z,100.00
2023-05-25T11:21:43.453Z,100.00
2023-05-25T11:24:16.490Z,100.00
2023-05-25T11:27:01.596Z,100.00
2023-05-25T11:29:31.465Z,100.00
2023-05-25T11:32:00.744Z,100.00
2023-05-25T11:34:29.163Z,100.00
2023-05-25T11:37:03.973Z,100.00
2023-05-25T11:39:34.412Z,100.00
2023-05-25T11:42:11.259Z,100.00
2023-05-25T11:44:39.162Z,100.00
2023-05-25T11:47:14.601Z,100.00
2023-05-25T11:49:46.142Z,100.00
2023-05-25T11:52:15.712Z,100.00
2023-05-25T11:54:43.892Z,100.00
2023-05-25T11:57:19.786Z,100.00
2023-05-25T11:59:54.864Z,100.00
2023-05-25T12:02:24.316Z,100.00
2023-05-25T12:04:59.167Z,100.00
2023-05-25T12:07:28.559Z,100.00
2023-05-25T12:10:09.748Z,100.00
2023-05-25T12:12:58.581Z,100.00
2023-05-25T12:15:27.208Z,100.00
2023-05-25T12:17:55.011Z,100.00
2023-05-25T12:20:22.841Z,100.00
2023-05-25T12:22:50.620Z,100.00
2023-05-25T12:25:22.076Z,100.00
2023-05-25T12:27:49.833Z,100.00
2023-05-25T12:30:17.311Z,100.00
2023-05-25T12:32:55.687Z,100.00
2023-05-25T12:35:23.450Z,100.00
2023-05-25T12:37:50.906Z,100.00
2023-05-25T12:40:21.635Z,100.00
2023-05-25T12:42:58.415Z,100.00
2023-05-25T12:45:26.235Z,100.00
2023-05-25T12:47:53.852Z,100.00
2023-05-25T12:50:21.195Z,100.00
2023-05-25T12:52:48.891Z,100.00
2023-05-25T12:55:26.119Z,100.00
2023-05-25T12:57:58.285Z,100.00
2023-05-25T13:00:28.441Z,100.00
2023-05-25T13:02:55.895Z,100.00
2023-05-25T13:05:28.519Z,100.00
2023-05-25T13:07:57.962Z,100.00
2023-05-25T13:10:26.385Z,100.00
2023-05-25T13:12:57.322Z,100.00
2023-05-25T13:15:26.317Z,100.00
2023-05-25T13:17:55.095Z,100.00
2023-05-25T13:20:25.653Z,100.00
2023-05-25T13:22:53.705Z,100.00
2023-05-25T13:25:22.561Z,100.00
2023-05-25T13:27:51.805Z,100.00
2023-05-25T13:30:22.017Z,100.00
2023-05-25T13:32:51.590Z,100.00
2023-05-25T13:35:34.343Z,100.00
2023-05-25T13:38:01.824Z,100.00
2023-05-25T13:40:29.447Z,100.00
2023-05-25T13:42:56.992Z,100.00
2023-05-25T13:45:25.184Z,100.00
2023-05-25T13:47:52.809Z,100.00
2023-05-25T13:50:20.381Z,100.00
2023-05-25T13:52:49.189Z,100.00
2023-05-25T13:55:16.788Z,100.00
2023-05-25T13:57:44.104Z,100.00
2023-05-25T14:00:32.294Z,100.00
2023-05-25T14:03:14.209Z,100.00
2023-05-25T14:05:41.881Z,100.00
2023-05-25T14:08:09.373Z,100.00
2023-05-25T14:10:39.052Z,100.00
2023-05-25T14:13:19.390Z,100.00
2023-05-25T14:15:47.442Z,100.00
2023-05-25T14:18:15.206Z,100.00
2023-05-25T14:20:42.911Z,100.00
2023-05-25T14:23:14.325Z,100.00
2023-05-25T14:25:43.481Z,100.00
2023-05-25T14:28:11.258Z,100.00
2023-05-25T14:30:38.692Z,100.00
2023-05-25T14:33:06.599Z,100.00
2023-05-25T14:35:36.790Z,100.00
2023-05-25T14:38:04.091Z,100.00
2023-05-25T14:40:32.085Z,100.00
2023-05-25T14:42:59.458Z,100.00
2023-05-25T14:45:26.752Z,100.00
2023-05-25T14:48:03.902Z,100.00
2023-05-25T14:50:47.055Z,100.00
2023-05-25T14:53:15.070Z,100.00
2023-05-25T14:55:42.537Z,100.00
2023-05-25T14:58:10.378Z,100.00
2023-05-25T15:00:37.910Z,100.00
2023-05-25T15:03:05.820Z,100.00
2023-05-25T15:05:33.601Z,100.00
2023-05-25T15:08:01.318Z,100.00
2023-05-25T15:10:29.800Z,100.00
2023-05-25T15:12:57.358Z,100.00
2023-05-25T15:15:24.669Z,100.00
2023-05-25T15:17:52.201Z,100.00
2023-05-25T15:20:19.603Z,100.00
2023-05-25T15:22:46.972Z,100.00
2023-05-25T15:25:19.002Z,100.00
2023-05-25T15:27:52.432Z,100.00
2023-05-25T15:30:19.765Z,100.00
2023-05-25T15:32:47.784Z,100.00
2023-05-25T15:35:15.250Z,100.00
2023-05-25T15:37:43.407Z,100.00
2023-05-25T15:40:11.514Z,100.00
2023-05-25T15:42:39.089Z,100.00
2023-05-25T15:45:07.344Z,100.00
2023-05-25T15:47:34.824Z,100.00
2023-05-25T15:50:02.376Z,100.00
2023-05-25T15:52:32.229Z,100.00
2023-05-25T15:55:03.081Z,100.00
2023-05-25T15:57:33.652Z,100.00
2023-05-25T16:00:05.624Z,100.00
2023-05-25T16:02:33.364Z,100.00
2023-05-25T16:05:00.946Z,100.00
2023-05-25T16:07:28.673Z,100.00
2023-05-25T16:09:55.949Z,100.00
2023-05-25T16:12:26.142Z,100.00
2023-05-25T16:14:54.865Z,100.00
2023-05-25T16:17:22.232Z,100.00
2023-05-25T16:19:49.637Z,100.00
2023-05-25T16:22:16.888Z,100.00
2023-05-25T16:24:44.295Z,100.00
2023-05-25T16:27:11.901Z,100.00
2023-05-25T16:29:42.518Z,100.00
2023-05-25T16:32:10.110Z,100.00
2023-05-25T16:34:37.778Z,100.00
2023-05-25T16:37:05.242Z,100.00
2023-05-25T16:39:33.440Z,100.00
2023-05-25T16:42:02.512Z,100.00
2023-05-25T16:44:29.883Z,100.00
2023-05-25T16:46:57.406Z,100.00
2023-05-25T16:49:24.796Z,100.00
2023-05-25T16:51:52.338Z,100.00
2023-05-25T16:54:19.853Z,100.00
2023-05-25T16:56:47.229Z,100.00
2023-05-25T16:59:14.550Z,100.00
2023-05-25T17:01:41.901Z,100.00
2023-05-25T17:04:09.439Z,100.00
2023-05-25T17:07:15.940Z,100.00
2023-05-25T17:09:43.606Z,100.00
2023-05-25T17:12:11.134Z,100.00
2023-05-25T17:14:38.649Z,100.00
2023-05-25T17:17:06.014Z,100.00
2023-05-25T17:19:33.344Z,100.00
2023-05-25T17:22:00.782Z,100.00
2023-05-25T17:24:28.004Z,100.00
2023-05-25T17:26:55.439Z,100.00
2023-05-25T17:29:23.468Z,100.00
2023-05-25T17:31:50.891Z,100.00
2023-05-25T17:34:20.945Z,100.00
2023-05-25T17:36:48.428Z,100.00
2023-05-25T17:39:15.722Z,100.00
2023-05-25T17:41:43.100Z,100.00
2023-05-25T17:44:10.889Z,100.00
2023-05-25T17:46:38.313Z,100.00
2023-05-25T17:49:05.883Z,100.00
2023-05-25T17:51:33.302Z,100.00
2023-05-25T17:54:01.088Z,100.00
2023-05-25T17:56:28.445Z,100.00
2023-05-25T17:58:55.867Z,100.00
2023-05-25T18:01:23.267Z,100.00
2023-05-25T18:03:53.408Z,100.00
2023-05-25T18:06:21.140Z,100.00
2023-05-25T18:08:48.518Z,100.00
2023-05-25T18:11:15.975Z,100.00
2023-05-25T18:13:44.145Z,100.00
2023-05-25T18:16:11.618Z,100.00
2023-05-25T18:18:39.365Z,100.00
2023-05-25T18:21:06.839Z,100.00
2023-05-25T18:23:34.451Z,100.00
2023-05-25T18:26:01.781Z,100.00
2023-05-25T18:28:31.285Z,100.00
2023-05-25T18:31:01.912Z,100.00
2023-05-25T18:33:30.932Z,100.00
2023-05-25T18:35:58.247Z,100.00
2023-05-25T18:38:25.887Z,100.00
2023-05-25T18:40:53.529Z,100.00
2023-05-25T18:43:21.073Z,100.00
2023-05-25T18:45:48.884Z,100.00
2023-05-25T18:48:18.968Z,100.00
2023-05-25T18:50:46.661Z,100.00
2023-05-25T18:53:14.218Z,100.00
2023-05-25T18:55:41.550Z,100.00
2023-05-25T18:58:14.227Z,100.00
2023-05-25T19:00:41.956Z,100.00
2023-05-25T19:03:13.658Z,100.00
2023-05-25T19:05:42.698Z,100.00
2023-05-25T19:08:10.056Z,100.00
2023-05-25T19:10:41.871Z,100.00
2023-05-25T19:13:10.298Z,100.00
2023-05-25T19:15:37.986Z,100.00
2023-05-25T19:18:05.849Z,100.00
2023-05-25T19:20:36.096Z,100.00
2023-05-25T19:23:04.883Z,100.00
2023-05-25T19:25:34.739Z,100.00
2023-05-25T19:28:02.509Z,100.00
2023-05-25T19:30:30.149Z,100.00
2023-05-25T19:32:57.944Z,100.00
2023-05-25T19:35:25.259Z,100.00
2023-05-25T19:37:53.112Z,100.00
2023-05-25T19:40:20.911Z,100.00
2023-05-25T19:42:48.719Z,100.00
2023-05-25T19:45:21.477Z,100.00
2023-05-25T19:47:49.635Z,100.00
2023-05-25T19:50:20.004Z,100.00
2023-05-25T19:52:47.482Z,100.00
2023-05-25T19:55:14.882Z,100.00
2023-05-25T19:57:42.237Z,100.00
2023-05-25T20:00:17.498Z,100.00
2023-05-25T20:02:53.377Z,100.00
2023-05-25T20:05:21.029Z,100.00
2023-05-25T20:07:50.427Z,100.00
2023-05-25T20:10:18.022Z,100.00
2023-05-25T20:12:45.587Z,100.00
2023-05-25T20:15:12.896Z,100.00
2023-05-25T20:17:40.706Z,100.00
2023-05-25T20:20:08.361Z,100.00
2023-05-25T20:22:36.318Z,100.00
2023-05-25T20:25:04.029Z,100.00
2023-05-25T20:27:31.608Z,100.00
2023-05-25T20:29:59.085Z,100.00
2023-05-25T20:32:26.605Z,100.00
2023-05-25T20:34:54.248Z,100.00
2023-05-25T20:37:21.738Z,100.00
2023-05-25T20:39:49.082Z,100.00
2023-05-25T20:42:17.092Z,100.00
2023-05-25T20:44:44.580Z,100.00
2023-05-25T20:47:12.149Z,100.00
2023-05-25T20:49:39.855Z,100.00
2023-05-25T20:52:07.355Z,100.00
2023-05-25T20:54:36.705Z,100.00
2023-05-25T20:57:04.468Z,100.00
2023-05-25T20:59:32.248Z,100.00
2023-05-25T21:01:59.659Z,100.00
2023-05-25T21:04:27.179Z,100.00
2023-05-25T21:06:55.552Z,100.00
2023-05-25T21:09:23.287Z,100.00
2023-05-25T21:11:51.020Z,100.00
2023-05-25T21:14:18.675Z,100.00
2023-05-25T21:16:46.135Z,100.00
2023-05-25T21:19:13.645Z,100.00
2023-05-25T21:21:41.408Z,100.00
2023-05-25T21:24:08.855Z,100.00
2023-05-25T21:26:36.343Z,100.00
2023-05-25T21:29:03.686Z,100.00
2023-05-25T21:31:31.491Z,100.00
2023-05-25T21:34:00.192Z,100.00
2023-05-25T21:36:28.030Z,100.00
2023-05-25T21:38:55.669Z,100.00
2023-05-25T21:41:23.538Z,100.00
2023-05-25T21:43:51.036Z,100.00
2023-05-25T21:46:18.536Z,100.00
2023-05-25T21:48:46.169Z,100.00
2023-05-25T21:51:13.849Z,100.00
2023-05-25T21:53:41.279Z,100.00
2023-05-25T21:56:08.727Z,100.00
2023-05-25T21:58:36.231Z,100.00
2023-05-25T22:01:04.097Z,100.00
2023-05-25T22:03:31.849Z,100.00
2023-05-25T22:05:59.727Z,100.00
2023-05-25T22:08:27.542Z,100.00
2023-05-25T22:10:55.172Z,100.00
2023-05-25T22:13:23.774Z,100.00
2023-05-25T22:15:51.217Z,100.00
2023-05-25T22:18:18.774Z,100.00
2023-05-25T22:20:46.243Z,100.00
2023-05-25T22:23:13.924Z,100.00
2023-05-25T22:25:41.662Z,100.00
2023-05-25T22:28:09.771Z,100.00
2023-05-25T22:30:37.168Z,100.00
2023-05-25T22:33:05.087Z,100.00
2023-05-25T22:35:32.974Z,100.00
2023-05-25T22:38:00.544Z,100.00
2023-05-25T22:40:28.144Z,100.00
2023-05-25T22:42:55.763Z,100.00
2023-05-25T22:45:23.414Z,100.00
2023-05-25T22:47:51.038Z,100.00
2023-05-25T22:50:18.600Z,100.00
2023-05-25T22:52:46.279Z,100.00
2023-05-25T22:55:13.745Z,100.00
2023-05-25T22:57:41.813Z,100.00
2023-05-25T23:00:09.755Z,100.00
2023-05-25T23:02:37.848Z,100.00
2023-05-25T23:05:18.661Z,100.00
2023-05-25T23:07:46.321Z,100.00
2023-05-25T23:11:27.307Z,100.00
2023-05-25T23:13:54.905Z,100.00
2023-05-25T23:16:22.757Z,100.00
2023-05-25T23:18:51.850Z,100.00
2023-05-25T23:21:19.381Z,100.00
2023-05-25T23:23:46.815Z,100.00
2023-05-25T23:26:14.363Z,100.00
2023-05-25T23:28:42.172Z,100.00
2023-05-25T23:31:09.949Z,100.00
2023-05-25T23:33:37.429Z,100.00
2023-05-25T23:36:05.164Z,100.00
2023-05-25T23:38:32.853Z,100.00
2023-05-25T23:41:00.333Z,100.00
2023-05-25T23:43:27.814Z,100.00
2023-05-25T23:45:56.767Z,100.00
2023-05-25T23:48:25.390Z,100.00
2023-05-25T23:50:52.814Z,100.00
2023-05-25T23:53:20.595Z,100.00
2023-05-25T23:55:48.174Z,100.00
2023-05-25T23:58:15.832Z,100.00
